createdAt,value
2023-05-10T00:00:47.547Z,8.24
2023-05-10T00:03:18.689Z,8.27
2023-05-10T00:05:48.157Z,8.29
2023-05-10T00:08:19.334Z,8.28
2023-05-10T00:10:50.338Z,8.25
2023-05-10T00:13:19.728Z,8.24
2023-05-10T00:15:51.792Z,8.22
2023-05-10T00:18:23.741Z,8.24
2023-05-10T00:20:54.826Z,8.26
2023-05-10T00:23:24.329Z,8.27
2023-05-10T00:25:55.535Z,8.25
2023-05-10T00:28:26.559Z,8.21
2023-05-10T00:30:56.390Z,8.16
2023-05-10T00:33:27.498Z,8.16
2023-05-10T00:35:58.417Z,8.17
2023-05-10T00:38:29.258Z,8.19
2023-05-10T00:40:58.654Z,8.20
2023-05-10T00:43:29.875Z,8.23
2023-05-10T00:45:59.740Z,8.22
2023-05-10T00:48:32.187Z,8.24
2023-05-10T00:51:04.653Z,8.27
2023-05-10T00:53:36.487Z,8.25
2023-05-10T00:56:07.650Z,8.23
2023-05-10T00:58:39.339Z,8.21
2023-05-10T01:01:11.851Z,8.21
2023-05-10T01:03:43.718Z,8.23
2023-05-10T01:06:14.779Z,8.26
2023-05-10T01:08:46.145Z,8.28
2023-05-10T01:11:17.058Z,8.26
2023-05-10T01:13:54.712Z,8.23
2023-05-10T01:16:26.438Z,8.19
2023-05-10T01:18:57.970Z,8.14
2023-05-10T01:21:35.564Z,8.14
2023-05-10T01:24:23.583Z,8.13
2023-05-10T01:27:26.996Z,8.11
2023-05-10T01:30:30.966Z,8.06
2023-05-10T01:33:08.370Z,8.00
2023-05-10T01:35:45.227Z,7.98
2023-05-10T01:38:23.196Z,7.95
2023-05-10T01:41:06.369Z,7.95
2023-05-10T01:43:45.162Z,7.91
2023-05-10T01:46:22.871Z,7.87
2023-05-10T01:48:58.083Z,7.84
2023-05-10T01:51:35.905Z,7.82
2023-05-10T01:54:08.029Z,7.78
2023-05-10T01:56:42.722Z,7.77
2023-05-10T01:59:19.178Z,7.78
2023-05-10T02:01:52.297Z,7.82
2023-05-10T02:04:26.859Z,7.82
2023-05-10T02:06:59.428Z,7.80
2023-05-10T02:09:32.884Z,7.77
2023-05-10T02:12:07.692Z,7.77
2023-05-10T02:14:40.938Z,7.80
2023-05-10T02:17:13.514Z,7.80
2023-05-10T02:19:46.346Z,7.81
2023-05-10T02:22:19.484Z,7.83
2023-05-10T02:24:52.025Z,7.82
2023-05-10T02:27:24.330Z,7.84
2023-05-10T02:29:56.734Z,7.81
2023-05-10T02:32:29.935Z,7.77
2023-05-10T02:35:03.089Z,7.71
2023-05-10T02:37:36.529Z,7.68
2023-05-10T02:40:10.988Z,7.67
2023-05-10T02:42:46.693Z,7.67
2023-05-10T02:45:21.003Z,7.67
2023-05-10T02:47:52.548Z,7.71
2023-05-10T02:50:24.631Z,7.71
2023-05-10T02:53:01.745Z,7.69
2023-05-10T02:55:39.024Z,7.69
2023-05-10T02:58:10.656Z,7.71
2023-05-10T03:00:41.756Z,7.76
2023-05-10T03:03:13.066Z,7.76
2023-05-10T03:05:44.212Z,7.79
2023-05-10T03:08:15.325Z,7.81
2023-05-10T03:10:57.762Z,7.84
2023-05-10T03:13:37.706Z,7.84
2023-05-10T03:16:14.550Z,7.85
2023-05-10T03:18:53.061Z,7.85
2023-05-10T03:21:28.153Z,7.85
2023-05-10T03:24:07.678Z,7.84
2023-05-10T03:26:39.687Z,7.84
2023-05-10T03:29:12.466Z,7.87
2023-05-10T03:31:43.993Z,7.88
2023-05-10T03:34:15.371Z,7.90
2023-05-10T03:36:44.800Z,7.96
2023-05-10T03:39:16.097Z,8.02
2023-05-10T03:41:47.203Z,8.09
2023-05-10T03:44:18.414Z,8.10
2023-05-10T03:46:49.649Z,8.12
2023-05-10T03:49:21.061Z,8.11
2023-05-10T03:51:52.104Z,8.11
2023-05-10T03:54:23.445Z,8.18
2023-05-10T03:56:52.710Z,8.28
2023-05-10T03:59:23.874Z,8.29
2023-05-10T04:01:53.290Z,8.34
2023-05-10T04:04:24.405Z,8.39
2023-05-10T04:06:53.796Z,8.47
2023-05-10T04:09:24.882Z,8.53
2023-05-10T04:11:56.214Z,8.58
2023-05-10T04:14:27.545Z,8.67
2023-05-10T04:16:59.084Z,8.80
2023-05-10T04:19:32.894Z,9.13
2023-05-10T04:22:04.449Z,9.50
2023-05-10T04:24:35.603Z,9.82
2023-05-10T04:27:05.063Z,10.14
2023-05-10T04:29:35.962Z,10.38
2023-05-10T04:32:08.419Z,10.65
2023-05-10T04:34:39.774Z,10.86
2023-05-10T04:37:10.968Z,11.03
2023-05-10T04:39:42.172Z,10.94
2023-05-10T04:42:15.898Z,10.71
2023-05-10T04:44:47.052Z,10.63
2023-05-10T04:47:18.085Z,10.59
2023-05-10T04:49:49.232Z,10.82
2023-05-10T04:52:20.372Z,11.17
2023-05-10T04:54:51.968Z,11.48
2023-05-10T04:57:23.038Z,11.77
2023-05-10T04:59:54.253Z,12.08
2023-05-10T05:02:25.914Z,12.44
2023-05-10T05:04:58.743Z,12.75
2023-05-10T05:07:31.573Z,13.05
2023-05-10T05:10:02.794Z,13.01
2023-05-10T05:12:34.750Z,12.75
2023-05-10T05:15:09.006Z,12.61
2023-05-10T05:17:43.638Z,12.42
2023-05-10T05:20:16.516Z,12.24
2023-05-10T05:22:47.761Z,12.11
2023-05-10T05:25:19.464Z,12.02
2023-05-10T05:27:50.521Z,11.95
2023-05-10T05:30:22.079Z,11.89
2023-05-10T05:32:53.547Z,11.82
2023-05-10T05:35:26.097Z,11.74
2023-05-10T05:37:57.258Z,11.65
2023-05-10T05:40:28.177Z,11.56
2023-05-10T05:42:59.357Z,11.51
2023-05-10T05:45:30.468Z,11.50
2023-05-10T05:48:01.978Z,11.52
2023-05-10T05:50:33.229Z,11.49
2023-05-10T05:53:04.685Z,11.45
2023-05-10T05:55:36.461Z,11.46
2023-05-10T05:58:07.394Z,11.47
2023-05-10T06:00:38.491Z,11.53
2023-05-10T06:03:09.752Z,11.59
2023-05-10T06:05:40.994Z,11.64
2023-05-10T06:08:12.131Z,11.70
2023-05-10T06:10:43.452Z,11.76
2023-05-10T06:13:14.556Z,11.79
2023-05-10T06:15:46.445Z,11.86
2023-05-10T06:18:17.606Z,11.91
2023-05-10T06:20:49.204Z,11.98
2023-05-10T06:23:20.404Z,11.96
2023-05-10T06:25:51.329Z,12.05
2023-05-10T06:28:22.695Z,12.09
2023-05-10T06:30:54.026Z,12.11
2023-05-10T06:33:25.036Z,12.14
2023-05-10T06:35:56.082Z,12.20
2023-05-10T06:38:27.145Z,12.26
2023-05-10T06:40:58.177Z,12.33
2023-05-10T06:43:29.977Z,12.37
2023-05-10T06:46:01.390Z,12.43
2023-05-10T06:48:32.289Z,12.50
2023-05-10T06:51:03.604Z,12.55
2023-05-10T06:53:34.955Z,12.60
2023-05-10T06:56:06.405Z,12.65
2023-05-10T06:58:37.777Z,12.68
2023-05-10T07:01:09.353Z,12.71
2023-05-10T07:03:40.505Z,12.76
2023-05-10T07:06:15.636Z,12.84
2023-05-10T07:08:53.303Z,12.86
2023-05-10T07:11:25.074Z,12.92
2023-05-10T07:13:56.012Z,12.94
2023-05-10T07:16:27.661Z,12.99
2023-05-10T07:18:58.892Z,13.06
2023-05-10T07:21:30.269Z,13.13
2023-05-10T07:24:01.994Z,13.20
2023-05-10T07:26:33.142Z,13.29
2023-05-10T07:29:04.786Z,13.35
2023-05-10T07:31:36.215Z,13.42
2023-05-10T07:34:07.196Z,13.53
2023-05-10T07:36:38.662Z,13.59
2023-05-10T07:39:09.887Z,13.65
2023-05-10T07:41:41.296Z,13.70
2023-05-10T07:44:12.300Z,13.75
2023-05-10T07:46:43.843Z,13.78
2023-05-10T07:49:15.745Z,13.83
2023-05-10T07:51:46.836Z,13.90
2023-05-10T07:54:18.400Z,13.99
2023-05-10T07:56:49.422Z,14.08
2023-05-10T07:59:21.288Z,14.19
2023-05-10T08:01:52.458Z,14.22
2023-05-10T08:04:23.684Z,14.31
2023-05-10T08:06:54.827Z,14.37
2023-05-10T08:09:26.402Z,14.38
2023-05-10T08:12:00.495Z,14.45
2023-05-10T08:14:33.019Z,14.56
2023-05-10T08:17:04.710Z,14.63
2023-05-10T08:19:35.943Z,14.68
2023-05-10T08:22:07.578Z,14.69
2023-05-10T08:24:39.497Z,14.75
2023-05-10T08:27:10.630Z,14.82
2023-05-10T08:29:49.490Z,14.94
2023-05-10T08:32:21.013Z,15.07
2023-05-10T08:34:51.981Z,15.21
2023-05-10T08:37:23.052Z,15.32
2023-05-10T08:39:55.172Z,15.40
2023-05-10T08:42:28.327Z,15.41
2023-05-10T08:45:01.428Z,15.46
2023-05-10T08:47:33.031Z,15.53
2023-05-10T08:50:04.867Z,15.56
2023-05-10T08:52:40.807Z,15.60
2023-05-10T08:55:12.329Z,15.62
2023-05-10T08:57:43.390Z,15.71
2023-05-10T09:00:16.937Z,15.86
2023-05-10T09:02:48.450Z,15.94
2023-05-10T09:05:20.295Z,16.02
2023-05-10T09:07:51.494Z,16.06
2023-05-10T09:10:23.566Z,16.10
2023-05-10T09:12:56.928Z,16.15
2023-05-10T09:15:29.757Z,16.25
2023-05-10T09:18:03.412Z,16.47
2023-05-10T09:20:34.924Z,16.65
2023-05-10T09:23:06.126Z,16.67
2023-05-10T09:25:38.300Z,16.73
2023-05-10T09:28:12.103Z,16.82
2023-05-10T09:30:44.088Z,16.89
2023-05-10T09:33:15.276Z,16.90
2023-05-10T09:35:47.188Z,16.94
2023-05-10T09:38:18.095Z,17.01
2023-05-10T09:40:56.470Z,17.03
2023-05-10T09:43:28.300Z,16.97
2023-05-10T09:45:59.752Z,16.87
2023-05-10T09:48:30.673Z,16.85
2023-05-10T09:51:01.984Z,16.86
2023-05-10T09:53:33.940Z,16.86
2023-05-10T09:56:05.439Z,16.87
2023-05-10T09:58:40.147Z,16.87
2023-05-10T10:01:15.415Z,16.87
2023-05-10T10:03:47.468Z,16.94
2023-05-10T10:06:29.509Z,17.09
2023-05-10T10:09:01.553Z,17.23
2023-05-10T10:11:32.745Z,17.29
2023-05-10T10:14:04.042Z,17.37
2023-05-10T10:16:36.034Z,17.35
2023-05-10T10:19:08.379Z,17.45
2023-05-10T10:21:39.689Z,17.61
2023-05-10T10:24:11.247Z,17.77
2023-05-10T10:26:44.229Z,17.84
2023-05-10T10:29:34.946Z,17.87
2023-05-10T10:32:14.023Z,17.83
2023-05-10T10:34:45.168Z,17.76
2023-05-10T10:37:16.287Z,17.75
2023-05-10T10:39:50.012Z,17.74
2023-05-10T10:42:48.084Z,17.75
2023-05-10T10:45:19.670Z,17.73
2023-05-10T10:47:51.039Z,17.71
2023-05-10T10:50:22.212Z,17.69
2023-05-10T10:52:54.618Z,17.71
2023-05-10T10:55:27.598Z,17.70
2023-05-10T10:58:03.308Z,17.65
2023-05-10T11:00:35.672Z,17.65
2023-05-10T11:03:09.500Z,17.75
2023-05-10T11:05:42.842Z,17.85
2023-05-10T11:08:17.513Z,17.87
2023-05-10T11:11:04.429Z,17.94
2023-05-10T11:13:37.024Z,17.99
2023-05-10T11:16:20.091Z,18.03
2023-05-10T11:19:00.778Z,18.17
2023-05-10T11:21:32.496Z,18.33
2023-05-10T11:24:07.245Z,18.41
2023-05-10T11:26:39.319Z,18.44
2023-05-10T11:29:10.755Z,18.42
2023-05-10T11:31:47.835Z,18.48
2023-05-10T11:34:28.983Z,18.50
2023-05-10T11:37:00.514Z,18.53
2023-05-10T11:39:32.937Z,18.56
2023-05-10T11:42:04.404Z,18.64
2023-05-10T11:44:35.654Z,18.66
2023-05-10T11:47:07.561Z,18.69
2023-05-10T11:49:38.581Z,18.78
2023-05-10T11:52:12.023Z,18.84
2023-05-10T11:54:52.971Z,18.87
2023-05-10T11:57:29.570Z,18.86
2023-05-10T12:00:03.440Z,18.77
2023-05-10T12:02:34.871Z,18.70
2023-05-10T12:05:07.696Z,18.69
2023-05-10T12:07:38.958Z,18.76
2023-05-10T12:10:15.580Z,18.80
2023-05-10T12:12:45.754Z,18.81
2023-05-10T12:15:23.165Z,18.83
2023-05-10T12:17:55.134Z,18.91
2023-05-10T12:20:29.670Z,18.96
2023-05-10T12:23:03.097Z,19.01
2023-05-10T12:25:36.413Z,19.00
2023-05-10T12:28:10.932Z,19.06
2023-05-10T12:30:42.173Z,19.16
2023-05-10T12:33:16.195Z,19.25
2023-05-10T12:35:51.377Z,19.28
2023-05-10T12:38:34.807Z,19.37
2023-05-10T12:41:07.938Z,19.38
2023-05-10T12:43:39.801Z,19.40
2023-05-10T12:46:12.695Z,19.36
2023-05-10T12:48:45.466Z,19.23
2023-05-10T12:51:20.424Z,19.14
2023-05-10T12:53:51.420Z,19.15
2023-05-10T12:56:22.317Z,19.24
2023-05-10T12:58:53.522Z,19.30
2023-05-10T13:01:24.521Z,19.32
2023-05-10T13:03:55.457Z,19.28
2023-05-10T13:06:26.757Z,19.19
2023-05-10T13:08:58.743Z,19.09
2023-05-10T13:11:29.982Z,19.05
2023-05-10T13:14:01.271Z,19.00
2023-05-10T13:16:32.286Z,18.98
2023-05-10T13:19:03.934Z,18.99
2023-05-10T13:21:34.951Z,18.91
2023-05-10T13:24:06.698Z,18.86
2023-05-10T13:26:37.710Z,18.86
2023-05-10T13:29:08.819Z,18.92
2023-05-10T13:31:40.170Z,18.95
2023-05-10T13:34:11.503Z,18.98
2023-05-10T13:36:42.407Z,19.02
2023-05-10T13:39:14.299Z,19.09
2023-05-10T13:41:45.436Z,19.11
2023-05-10T13:44:17.478Z,19.05
2023-05-10T13:46:48.849Z,18.99
2023-05-10T13:49:19.799Z,18.93
2023-05-10T13:51:50.864Z,18.89
2023-05-10T13:54:23.162Z,18.90
2023-05-10T13:56:54.346Z,18.93
2023-05-10T13:59:25.678Z,18.94
2023-05-10T14:01:56.936Z,18.92
2023-05-10T14:04:28.577Z,18.90
2023-05-10T14:06:59.695Z,18.84
2023-05-10T14:09:31.544Z,18.86
2023-05-10T14:12:03.331Z,18.92
2023-05-10T14:14:34.492Z,19.08
2023-05-10T14:17:05.404Z,19.44
2023-05-10T14:19:36.452Z,19.67
2023-05-10T14:22:07.724Z,19.84
2023-05-10T14:24:38.783Z,19.94
2023-05-10T14:27:10.135Z,20.13
2023-05-10T14:29:41.279Z,20.15
2023-05-10T14:32:12.205Z,20.10
2023-05-10T14:34:43.279Z,19.97
2023-05-10T14:37:18.788Z,19.85
2023-05-10T14:39:49.792Z,19.77
2023-05-10T14:42:20.758Z,19.91
2023-05-10T14:44:51.932Z,20.14
2023-05-10T14:47:22.967Z,20.29
2023-05-10T14:49:54.221Z,20.26
2023-05-10T14:52:25.292Z,20.11
2023-05-10T14:54:56.252Z,19.88
2023-05-10T14:57:27.264Z,19.72
2023-05-10T14:59:58.446Z,19.61
2023-05-10T15:02:30.468Z,19.77
2023-05-10T15:05:01.970Z,19.83
2023-05-10T15:07:34.041Z,19.89
2023-05-10T15:10:05.809Z,19.89
2023-05-10T15:12:36.689Z,19.85
2023-05-10T15:15:09.437Z,19.82
2023-05-10T15:17:40.618Z,19.75
2023-05-10T15:20:13.101Z,19.78
2023-05-10T15:22:44.478Z,19.81
2023-05-10T15:25:16.987Z,19.83
2023-05-10T15:27:48.187Z,19.88
2023-05-10T15:30:19.485Z,20.06
2023-05-10T15:32:50.470Z,20.13
2023-05-10T15:35:22.079Z,20.06
2023-05-10T15:37:53.116Z,20.00
2023-05-10T15:40:24.077Z,20.13
2023-05-10T15:42:55.100Z,20.25
2023-05-10T15:45:26.232Z,20.37
2023-05-10T15:47:57.329Z,20.52
2023-05-10T15:50:28.820Z,20.69
2023-05-10T15:52:59.769Z,20.77
2023-05-10T15:55:31.559Z,20.87
2023-05-10T15:58:02.800Z,20.88
2023-05-10T16:00:34.418Z,20.81
2023-05-10T16:03:05.803Z,20.68
2023-05-10T16:05:36.948Z,20.63
2023-05-10T16:08:07.957Z,20.54
2023-05-10T16:10:39.016Z,20.53
2023-05-10T16:13:10.069Z,20.59
2023-05-10T16:15:41.928Z,20.64
2023-05-10T16:18:13.519Z,20.61
2023-05-10T16:20:44.630Z,20.58
2023-05-10T16:23:16.197Z,20.51
2023-05-10T16:25:47.212Z,20.42
2023-05-10T16:28:19.631Z,20.29
2023-05-10T16:30:50.708Z,20.02
2023-05-10T16:33:21.878Z,19.79
2023-05-10T16:35:52.889Z,19.48
2023-05-10T16:38:24.134Z,19.24
2023-05-10T16:40:55.435Z,19.07
2023-05-10T16:43:26.464Z,18.94
2023-05-10T16:45:57.605Z,18.83
2023-05-10T16:48:28.594Z,18.71
2023-05-10T16:50:59.485Z,18.56
2023-05-10T16:53:31.252Z,18.38
2023-05-10T16:56:02.403Z,18.24
2023-05-10T16:58:34.011Z,18.13
2023-05-10T17:01:05.195Z,18.02
2023-05-10T17:03:36.918Z,17.91
2023-05-10T17:06:10.218Z,17.82
2023-05-10T17:08:41.427Z,17.72
2023-05-10T17:11:12.450Z,17.60
2023-05-10T17:13:44.001Z,17.50
2023-05-10T17:16:15.047Z,17.38
2023-05-10T17:18:46.708Z,17.25
2023-05-10T17:21:17.804Z,17.14
2023-05-10T17:23:49.073Z,17.04
2023-05-10T17:26:20.115Z,16.93
2023-05-10T17:28:51.362Z,16.84
2023-05-10T17:31:22.722Z,16.74
2023-05-10T17:33:53.663Z,16.68
2023-05-10T17:36:24.656Z,16.58
2023-05-10T17:38:55.736Z,16.53
2023-05-10T17:41:26.826Z,16.49
2023-05-10T17:43:58.078Z,16.44
2023-05-10T17:46:29.288Z,16.39
2023-05-10T17:49:00.677Z,16.33
2023-05-10T17:51:32.270Z,16.25
2023-05-10T17:54:03.341Z,16.18
2023-05-10T17:56:34.666Z,16.10
2023-05-10T17:59:06.602Z,16.03
2023-05-10T18:01:37.868Z,15.96
2023-05-10T18:04:09.399Z,15.88
2023-05-10T18:06:41.642Z,15.82
2023-05-10T18:09:12.805Z,15.76
2023-05-10T18:11:43.882Z,15.69
2023-05-10T18:14:17.122Z,15.60
2023-05-10T18:16:51.926Z,15.57
2023-05-10T18:19:25.062Z,15.51
2023-05-10T18:21:56.167Z,15.45
2023-05-10T18:24:38.407Z,15.39
2023-05-10T18:27:15.411Z,15.33
2023-05-10T18:29:46.523Z,15.26
2023-05-10T18:32:17.583Z,15.17
2023-05-10T18:34:48.879Z,15.11
2023-05-10T18:37:20.159Z,15.07
2023-05-10T18:39:51.708Z,15.04
2023-05-10T18:42:22.876Z,15.01
2023-05-10T18:44:53.721Z,14.98
2023-05-10T18:47:26.529Z,14.93
2023-05-10T18:49:57.952Z,14.86
2023-05-10T18:52:55.219Z,14.79
2023-05-10T18:55:34.770Z,14.71
2023-05-10T18:58:06.209Z,14.66
2023-05-10T19:00:37.292Z,14.63
2023-05-10T19:03:08.605Z,14.60
2023-05-10T19:05:39.717Z,14.57
2023-05-10T19:08:11.005Z,14.52
2023-05-10T19:10:42.354Z,14.49
2023-05-10T19:13:15.052Z,14.43
2023-05-10T19:15:46.564Z,14.38
2023-05-10T19:18:17.672Z,14.33
2023-05-10T19:20:48.632Z,14.29
2023-05-10T19:23:19.639Z,14.24
2023-05-10T19:25:50.722Z,14.20
2023-05-10T19:28:21.895Z,14.16
2023-05-10T19:30:53.086Z,14.11
2023-05-10T19:33:24.404Z,14.06
2023-05-10T19:35:55.560Z,13.98
2023-05-10T19:38:27.174Z,13.93
2023-05-10T19:40:59.528Z,13.89
2023-05-10T19:43:34.243Z,13.84
2023-05-10T19:46:05.873Z,13.78
2023-05-10T19:48:36.765Z,13.76
2023-05-10T19:51:10.275Z,13.76
2023-05-10T19:53:44.816Z,13.74
2023-05-10T19:56:18.218Z,13.75
2023-05-10T19:58:49.456Z,13.75
2023-05-10T20:01:20.479Z,13.73
2023-05-10T20:03:51.723Z,13.73
2023-05-10T20:06:23.192Z,13.70
2023-05-10T20:08:54.534Z,13.67
2023-05-10T20:11:25.606Z,13.63
2023-05-10T20:13:56.530Z,13.64
2023-05-10T20:16:28.047Z,13.62
2023-05-10T20:18:59.131Z,13.61
2023-05-10T20:21:30.163Z,13.56
2023-05-10T20:24:01.315Z,13.54
2023-05-10T20:26:34.190Z,13.56
2023-05-10T20:29:05.553Z,13.54
2023-05-10T20:31:36.685Z,13.53
2023-05-10T20:34:07.946Z,13.53
2023-05-10T20:36:39.074Z,13.51
2023-05-10T20:39:10.647Z,13.46
2023-05-10T20:41:42.127Z,13.45
2023-05-10T20:44:13.187Z,13.43
2023-05-10T20:46:45.090Z,13.40
2023-05-10T20:49:16.094Z,13.39
2023-05-10T20:51:47.489Z,13.40
2023-05-10T20:54:18.724Z,13.38
2023-05-10T20:56:49.899Z,13.39
2023-05-10T20:59:22.159Z,13.42
2023-05-10T21:01:53.630Z,13.42
2023-05-10T21:04:26.041Z,13.42
2023-05-10T21:06:57.210Z,13.40
2023-05-10T21:09:28.352Z,13.40
2023-05-10T21:12:01.631Z,13.39
2023-05-10T21:14:33.068Z,13.38
2023-05-10T21:17:04.557Z,13.37
2023-05-10T21:19:35.747Z,13.34
2023-05-10T21:22:07.705Z,13.30
2023-05-10T21:24:39.275Z,13.26
2023-05-10T21:27:10.528Z,13.21
2023-05-10T21:29:41.603Z,13.20
2023-05-10T21:32:12.540Z,13.17
2023-05-10T21:34:43.635Z,13.09
2023-05-10T21:37:14.899Z,13.06
2023-05-10T21:39:46.219Z,13.04
2023-05-10T21:42:17.541Z,13.01
2023-05-10T21:44:48.658Z,13.00
2023-05-10T21:47:19.604Z,12.98
2023-05-10T21:49:51.979Z,12.95
2023-05-10T21:52:22.989Z,12.91
2023-05-10T21:54:54.005Z,12.90
2023-05-10T21:57:25.244Z,12.88
2023-05-10T21:59:56.460Z,12.91
2023-05-10T22:02:29.502Z,12.88
2023-05-10T22:05:02.213Z,12.84
2023-05-10T22:07:35.223Z,12.83
2023-05-10T22:10:07.380Z,12.78
2023-05-10T22:12:38.375Z,12.75
2023-05-10T22:15:11.199Z,12.73
2023-05-10T22:17:42.571Z,12.72
2023-05-10T22:20:14.108Z,12.70
2023-05-10T22:22:45.094Z,12.70
2023-05-10T22:25:16.713Z,12.71
2023-05-10T22:27:48.168Z,12.70
2023-05-10T22:30:20.492Z,12.68
2023-05-10T22:32:51.803Z,12.70
2023-05-10T22:35:23.120Z,12.70
2023-05-10T22:37:54.646Z,12.69
2023-05-10T22:40:25.714Z,12.68
2023-05-10T22:42:56.713Z,12.71
2023-05-10T22:45:28.359Z,12.72
2023-05-10T22:48:00.781Z,12.73
2023-05-10T22:50:33.233Z,12.72
2023-05-10T22:53:04.480Z,12.68
2023-05-10T22:55:36.612Z,12.69
2023-05-10T22:58:08.044Z,12.71
2023-05-10T23:00:39.807Z,12.70
2023-05-10T23:03:10.828Z,12.67
2023-05-10T23:05:41.862Z,12.63
2023-05-10T23:08:12.940Z,12.63
2023-05-10T23:10:44.054Z,12.63
2023-05-10T23:13:15.408Z,12.64
2023-05-10T23:15:46.658Z,12.65
2023-05-10T23:18:17.760Z,12.66
2023-05-10T23:20:48.973Z,12.65
2023-05-10T23:23:19.875Z,12.67
2023-05-10T23:25:51.645Z,12.68
2023-05-10T23:28:22.578Z,12.66
2023-05-10T23:30:58.551Z,12.66
2023-05-10T23:33:29.674Z,12.66
2023-05-10T23:36:00.600Z,12.65
2023-05-10T23:38:32.600Z,12.63
2023-05-10T23:41:03.544Z,12.63
2023-05-10T23:43:34.589Z,12.64
2023-05-10T23:46:06.679Z,12.65
2023-05-10T23:48:37.843Z,12.63
2023-05-10T23:51:09.264Z,12.64
2023-05-10T23:53:40.351Z,12.63
2023-05-10T23:56:12.145Z,12.62
2023-05-10T23:58:44.313Z,12.59
